sensor_id;sensor_type;location;lat;lon;timestamp;P1;durP1;ratioP1;P2;durP2;ratioP2
35847;SDS011;22332;51.954;20.118;2023-04-09T00:03:02;9.70;;;6.50;;
35847;SDS011;22332;51.954;20.118;2023-04-09T00:06:09;9.70;;;7.30;;
35847;SDS011;22332;51.954;20.118;2023-04-09T00:09:15;10.00;;;7.00;;
35847;SDS011;22332;51.954;20.118;2023-04-09T00:12:22;10.50;;;7.20;;
35847;SDS011;22332;51.954;20.118;2023-04-09T00:15:28;10.20;;;7.30;;
35847;SDS011;22332;51.954;20.118;2023-04-09T00:18:33;10.70;;;7.40;;
35847;SDS011;22332;51.954;20.118;2023-04-09T00:21:38;11.60;;;8.30;;
35847;SDS011;22332;51.954;20.118;2023-04-09T00:24:44;10.10;;;7.20;;
35847;SDS011;22332;51.954;20.118;2023-04-09T00:27:49;9.80;;;7.30;;
35847;SDS011;22332;51.954;20.118;2023-04-09T00:30:55;9.60;;;6.50;;
35847;SDS011;22332;51.954;20.118;2023-04-09T00:34:00;9.30;;;6.00;;
35847;SDS011;22332;51.954;20.118;2023-04-09T00:37:05;8.80;;;6.50;;
35847;SDS011;22332;51.954;20.118;2023-04-09T00:40:11;8.60;;;6.40;;
35847;SDS011;22332;51.954;20.118;2023-04-09T00:43:17;37.50;;;15.10;;
35847;SDS011;22332;51.954;20.118;2023-04-09T00:46:23;30.60;;;14.70;;
35847;SDS011;22332;51.954;20.118;2023-04-09T00:49:28;26.40;;;13.20;;
35847;SDS011;22332;51.954;20.118;2023-04-09T00:52:34;22.80;;;11.80;;
35847;SDS011;22332;51.954;20.118;2023-04-09T00:55:40;27.40;;;13.70;;
35847;SDS011;22332;51.954;20.118;2023-04-09T00:58:45;17.60;;;9.10;;
35847;SDS011;22332;51.954;20.118;2023-04-09T01:01:52;19.00;;;9.30;;
35847;SDS011;22332;51.954;20.118;2023-04-09T01:04:57;19.90;;;10.50;;
35847;SDS011;22332;51.954;20.118;2023-04-09T01:08:06;74.70;;;33.70;;
35847;SDS011;22332;51.954;20.118;2023-04-09T01:11:29;80.20;;;34.90;;
35847;SDS011;22332;51.954;20.118;2023-04-09T01:17:51;36.00;;;18.10;;
35847;SDS011;22332;51.954;20.118;2023-04-09T01:21:03;25.90;;;14.60;;
35847;SDS011;22332;51.954;20.118;2023-04-09T01:24:17;19.30;;;12.40;;
35847;SDS011;22332;51.954;20.118;2023-04-09T01:27:36;16.20;;;10.80;;
35847;SDS011;22332;51.954;20.118;2023-04-09T01:30:49;12.70;;;8.90;;
35847;SDS011;22332;51.954;20.118;2023-04-09T01:33:56;13.60;;;8.30;;
35847;SDS011;22332;51.954;20.118;2023-04-09T01:37:03;15.40;;;10.00;;
35847;SDS011;22332;51.954;20.118;2023-04-09T01:40:11;12.80;;;9.80;;
35847;SDS011;22332;51.954;20.118;2023-04-09T01:43:17;14.70;;;10.40;;
35847;SDS011;22332;51.954;20.118;2023-04-09T01:46:24;14.50;;;10.00;;
35847;SDS011;22332;51.954;20.118;2023-04-09T01:49:30;12.90;;;9.60;;
35847;SDS011;22332;51.954;20.118;2023-04-09T01:52:36;13.00;;;9.60;;
35847;SDS011;22332;51.954;20.118;2023-04-09T01:55:42;12.50;;;9.60;;
35847;SDS011;22332;51.954;20.118;2023-04-09T01:58:47;11.50;;;8.00;;
35847;SDS011;22332;51.954;20.118;2023-04-09T02:01:57;11.70;;;8.20;;
35847;SDS011;22332;51.954;20.118;2023-04-09T02:05:09;12.90;;;9.50;;
35847;SDS011;22332;51.954;20.118;2023-04-09T02:08:19;14.30;;;9.90;;
35847;SDS011;22332;51.954;20.118;2023-04-09T02:11:26;14.50;;;9.80;;
35847;SDS011;22332;51.954;20.118;2023-04-09T02:14:36;12.80;;;9.80;;
35847;SDS011;22332;51.954;20.118;2023-04-09T02:17:43;13.80;;;9.60;;
35847;SDS011;22332;51.954;20.118;2023-04-09T02:20:48;13.10;;;9.70;;
35847;SDS011;22332;51.954;20.118;2023-04-09T02:23:55;12.50;;;9.00;;
35847;SDS011;22332;51.954;20.118;2023-04-09T02:27:00;11.60;;;7.90;;
35847;SDS011;22332;51.954;20.118;2023-04-09T02:30:07;9.80;;;7.20;;
35847;SDS011;22332;51.954;20.118;2023-04-09T02:33:13;10.70;;;8.20;;
35847;SDS011;22332;51.954;20.118;2023-04-09T02:36:19;11.30;;;9.20;;
35847;SDS011;22332;51.954;20.118;2023-04-09T02:39:24;11.90;;;9.10;;
35847;SDS011;22332;51.954;20.118;2023-04-09T02:42:30;11.60;;;9.10;;
35847;SDS011;22332;51.954;20.118;2023-04-09T02:45:35;11.60;;;8.90;;
35847;SDS011;22332;51.954;20.118;2023-04-09T02:48:41;11.80;;;8.90;;
35847;SDS011;22332;51.954;20.118;2023-04-09T02:51:46;13.00;;;8.80;;
35847;SDS011;22332;51.954;20.118;2023-04-09T02:54:51;11.40;;;7.80;;
35847;SDS011;22332;51.954;20.118;2023-04-09T02:57:57;11.00;;;7.80;;
35847;SDS011;22332;51.954;20.118;2023-04-09T03:01:02;12.30;;;8.70;;
35847;SDS011;22332;51.954;20.118;2023-04-09T03:04:08;12.70;;;9.20;;
35847;SDS011;22332;51.954;20.118;2023-04-09T03:07:13;12.50;;;9.30;;
35847;SDS011;22332;51.954;20.118;2023-04-09T03:10:19;12.80;;;9.40;;
35847;SDS011;22332;51.954;20.118;2023-04-09T03:13:24;13.30;;;9.60;;
35847;SDS011;22332;51.954;20.118;2023-04-09T03:16:31;12.60;;;9.50;;
35847;SDS011;22332;51.954;20.118;2023-04-09T03:19:37;12.80;;;9.50;;
35847;SDS011;22332;51.954;20.118;2023-04-09T03:22:42;12.30;;;8.80;;
35847;SDS011;22332;51.954;20.118;2023-04-09T03:26:01;11.90;;;8.20;;
35847;SDS011;22332;51.954;20.118;2023-04-09T03:29:10;16.40;;;10.60;;
35847;SDS011;22332;51.954;20.118;2023-04-09T03:32:16;14.80;;;10.00;;
35847;SDS011;22332;51.954;20.118;2023-04-09T03:35:21;12.10;;;9.10;;
35847;SDS011;22332;51.954;20.118;2023-04-09T03:38:31;15.30;;;11.30;;
35847;SDS011;22332;51.954;20.118;2023-04-09T03:41:40;15.50;;;10.50;;
35847;SDS011;22332;51.954;20.118;2023-04-09T03:44:49;18.30;;;12.50;;
35847;SDS011;22332;51.954;20.118;2023-04-09T03:48:10;15.70;;;10.90;;
35847;SDS011;22332;51.954;20.118;2023-04-09T03:51:16;12.70;;;9.20;;
35847;SDS011;22332;51.954;20.118;2023-04-09T03:54:29;16.90;;;11.50;;
35847;SDS011;22332;51.954;20.118;2023-04-09T03:57:36;14.40;;;10.70;;
35847;SDS011;22332;51.954;20.118;2023-04-09T04:00:43;16.70;;;12.10;;
35847;SDS011;22332;51.954;20.118;2023-04-09T04:04:05;16.80;;;12.20;;
35847;SDS011;22332;51.954;20.118;2023-04-09T04:07:19;42.10;;;26.90;;
35847;SDS011;22332;51.954;20.118;2023-04-09T04:10:29;33.90;;;21.10;;
35847;SDS011;22332;51.954;20.118;2023-04-09T04:13:36;54.30;;;31.50;;
35847;SDS011;22332;51.954;20.118;2023-04-09T04:16:43;27.10;;;17.90;;
35847;SDS011;22332;51.954;20.118;2023-04-09T04:19:52;20.70;;;14.60;;
35847;SDS011;22332;51.954;20.118;2023-04-09T04:22:58;27.40;;;21.90;;
35847;SDS011;22332;51.954;20.118;2023-04-09T04:26:07;21.20;;;15.70;;
35847;SDS011;22332;51.954;20.118;2023-04-09T04:29:13;24.80;;;18.90;;
35847;SDS011;22332;51.954;20.118;2023-04-09T04:32:28;23.10;;;16.40;;
35847;SDS011;22332;51.954;20.118;2023-04-09T04:35:37;41.90;;;26.20;;
35847;SDS011;22332;51.954;20.118;2023-04-09T04:38:44;26.60;;;18.30;;
35847;SDS011;22332;51.954;20.118;2023-04-09T04:42:04;77.80;;;57.20;;
35847;SDS011;22332;51.954;20.118;2023-04-09T04:45:09;27.90;;;20.40;;
35847;SDS011;22332;51.954;20.118;2023-04-09T04:48:38;21.10;;;15.40;;
35847;SDS011;22332;51.954;20.118;2023-04-09T04:51:44;21.40;;;15.30;;
35847;SDS011;22332;51.954;20.118;2023-04-09T04:54:51;20.50;;;14.50;;
35847;SDS011;22332;51.954;20.118;2023-04-09T04:57:58;17.70;;;12.70;;
35847;SDS011;22332;51.954;20.118;2023-04-09T05:01:05;17.00;;;11.70;;
35847;SDS011;22332;51.954;20.118;2023-04-09T05:04:12;23.70;;;16.70;;
35847;SDS011;22332;51.954;20.118;2023-04-09T05:07:17;18.90;;;14.10;;
35847;SDS011;22332;51.954;20.118;2023-04-09T05:10:29;20.50;;;14.90;;
35847;SDS011;22332;51.954;20.118;2023-04-09T05:13:35;20.20;;;14.90;;
35847;SDS011;22332;51.954;20.118;2023-04-09T05:16:44;21.40;;;16.30;;
35847;SDS011;22332;51.954;20.118;2023-04-09T05:19:51;20.70;;;15.60;;
35847;SDS011;22332;51.954;20.118;2023-04-09T05:23:02;20.40;;;14.00;;
35847;SDS011;22332;51.954;20.118;2023-04-09T05:26:12;19.00;;;13.80;;
35847;SDS011;22332;51.954;20.118;2023-04-09T05:29:28;25.90;;;18.70;;
35847;SDS011;22332;51.954;20.118;2023-04-09T05:32:35;25.20;;;19.00;;
35847;SDS011;22332;51.954;20.118;2023-04-09T05:35:41;26.60;;;17.80;;
35847;SDS011;22332;51.954;20.118;2023-04-09T05:38:46;26.90;;;18.40;;
35847;SDS011;22332;51.954;20.118;2023-04-09T05:41:52;24.90;;;17.40;;
35847;SDS011;22332;51.954;20.118;2023-04-09T05:44:58;24.10;;;17.20;;
35847;SDS011;22332;51.954;20.118;2023-04-09T05:48:04;23.10;;;15.20;;
35847;SDS011;22332;51.954;20.118;2023-04-09T05:51:10;21.30;;;14.20;;
35847;SDS011;22332;51.954;20.118;2023-04-09T05:54:17;24.10;;;16.60;;
35847;SDS011;22332;51.954;20.118;2023-04-09T05:57:23;25.00;;;17.40;;
35847;SDS011;22332;51.954;20.118;2023-04-09T06:00:35;25.60;;;18.80;;
35847;SDS011;22332;51.954;20.118;2023-04-09T06:03:40;28.70;;;19.50;;
35847;SDS011;22332;51.954;20.118;2023-04-09T06:06:46;26.50;;;18.40;;
35847;SDS011;22332;51.954;20.118;2023-04-09T06:09:51;27.00;;;20.40;;
35847;SDS011;22332;51.954;20.118;2023-04-09T06:12:57;25.00;;;16.70;;
35847;SDS011;22332;51.954;20.118;2023-04-09T06:16:04;21.20;;;14.20;;
35847;SDS011;22332;51.954;20.118;2023-04-09T06:19:11;22.10;;;16.20;;
35847;SDS011;22332;51.954;20.118;2023-04-09T06:22:18;25.00;;;17.60;;
35847;SDS011;22332;51.954;20.118;2023-04-09T06:25:23;27.60;;;19.30;;
35847;SDS011;22332;51.954;20.118;2023-04-09T06:28:29;28.40;;;19.60;;
35847;SDS011;22332;51.954;20.118;2023-04-09T06:31:35;26.10;;;19.30;;
35847;SDS011;22332;51.954;20.118;2023-04-09T06:34:41;29.50;;;20.10;;
35847;SDS011;22332;51.954;20.118;2023-04-09T06:37:46;28.50;;;19.70;;
35847;SDS011;22332;51.954;20.118;2023-04-09T06:40:52;26.60;;;18.10;;
35847;SDS011;22332;51.954;20.118;2023-04-09T06:43:58;23.10;;;16.40;;
35847;SDS011;22332;51.954;20.118;2023-04-09T06:47:04;24.70;;;17.80;;
35847;SDS011;22332;51.954;20.118;2023-04-09T06:50:10;25.70;;;18.50;;
35847;SDS011;22332;51.954;20.118;2023-04-09T06:53:16;23.90;;;18.30;;
35847;SDS011;22332;51.954;20.118;2023-04-09T06:56:21;26.10;;;19.00;;
35847;SDS011;22332;51.954;20.118;2023-04-09T06:59:27;26.50;;;19.10;;
35847;SDS011;22332;51.954;20.118;2023-04-09T07:02:32;25.30;;;18.30;;
35847;SDS011;22332;51.954;20.118;2023-04-09T07:05:39;27.20;;;19.50;;
35847;SDS011;22332;51.954;20.118;2023-04-09T07:08:44;26.00;;;19.50;;
35847;SDS011;22332;51.954;20.118;2023-04-09T07:11:50;27.00;;;19.90;;
35847;SDS011;22332;51.954;20.118;2023-04-09T07:14:57;36.60;;;28.60;;
35847;SDS011;22332;51.954;20.118;2023-04-09T07:18:14;27.60;;;20.90;;
35847;SDS011;22332;51.954;20.118;2023-04-09T07:21:45;32.00;;;23.40;;
35847;SDS011;22332;51.954;20.118;2023-04-09T07:24:50;29.40;;;20.40;;
35847;SDS011;22332;51.954;20.118;2023-04-09T07:27:56;28.60;;;21.10;;
35847;SDS011;22332;51.954;20.118;2023-04-09T07:31:02;28.00;;;21.20;;
35847;SDS011;22332;51.954;20.118;2023-04-09T07:34:08;27.90;;;21.70;;
35847;SDS011;22332;51.954;20.118;2023-04-09T07:37:13;32.20;;;24.80;;
35847;SDS011;22332;51.954;20.118;2023-04-09T07:40:19;27.60;;;21.10;;
35847;SDS011;22332;51.954;20.118;2023-04-09T07:43:24;27.00;;;20.30;;
35847;SDS011;22332;51.954;20.118;2023-04-09T07:46:29;26.90;;;21.20;;
35847;SDS011;22332;51.954;20.118;2023-04-09T07:49:35;25.70;;;20.40;;
35847;SDS011;22332;51.954;20.118;2023-04-09T07:52:41;20.10;;;16.40;;
35847;SDS011;22332;51.954;20.118;2023-04-09T07:55:46;20.30;;;16.10;;
35847;SDS011;22332;51.954;20.118;2023-04-09T07:58:54;22.50;;;15.70;;
35847;SDS011;22332;51.954;20.118;2023-04-09T08:01:59;17.10;;;13.60;;
35847;SDS011;22332;51.954;20.118;2023-04-09T08:05:06;17.20;;;13.70;;
35847;SDS011;22332;51.954;20.118;2023-04-09T08:08:12;14.90;;;11.60;;
35847;SDS011;22332;51.954;20.118;2023-04-09T08:11:17;15.20;;;11.90;;
35847;SDS011;22332;51.954;20.118;2023-04-09T08:14:26;15.30;;;11.70;;
35847;SDS011;22332;51.954;20.118;2023-04-09T08:17:32;16.80;;;12.80;;
35847;SDS011;22332;51.954;20.118;2023-04-09T08:20:38;14.20;;;11.40;;
35847;SDS011;22332;51.954;20.118;2023-04-09T08:23:46;14.10;;;11.10;;
35847;SDS011;22332;51.954;20.118;2023-04-09T08:26:52;15.20;;;11.10;;
35847;SDS011;22332;51.954;20.118;2023-04-09T08:29:58;15.60;;;11.20;;
35847;SDS011;22332;51.954;20.118;2023-04-09T08:33:04;16.40;;;12.40;;
35847;SDS011;22332;51.954;20.118;2023-04-09T08:36:09;14.60;;;11.50;;
35847;SDS011;22332;51.954;20.118;2023-04-09T08:39:15;13.40;;;10.70;;
35847;SDS011;22332;51.954;20.118;2023-04-09T08:42:22;14.70;;;11.10;;
35847;SDS011;22332;51.954;20.118;2023-04-09T08:45:29;13.20;;;10.10;;
35847;SDS011;22332;51.954;20.118;2023-04-09T08:48:36;11.10;;;9.10;;
35847;SDS011;22332;51.954;20.118;2023-04-09T08:51:49;11.10;;;9.00;;
35847;SDS011;22332;51.954;20.118;2023-04-09T08:54:54;13.20;;;10.00;;
35847;SDS011;22332;51.954;20.118;2023-04-09T08:58:00;14.40;;;11.10;;
35847;SDS011;22332;51.954;20.118;2023-04-09T09:01:18;12.20;;;9.60;;
35847;SDS011;22332;51.954;20.118;2023-04-09T09:04:25;13.00;;;10.70;;
35847;SDS011;22332;51.954;20.118;2023-04-09T09:07:53;13.00;;;10.30;;
35847;SDS011;22332;51.954;20.118;2023-04-09T09:10:59;12.90;;;10.70;;
35847;SDS011;22332;51.954;20.118;2023-04-09T09:14:05;22.30;;;19.60;;
35847;SDS011;22332;51.954;20.118;2023-04-09T09:17:12;14.80;;;12.60;;
35847;SDS011;22332;51.954;20.118;2023-04-09T09:20:19;16.30;;;13.30;;
35847;SDS011;22332;51.954;20.118;2023-04-09T09:23:34;16.80;;;12.70;;
35847;SDS011;22332;51.954;20.118;2023-04-09T09:26:40;19.40;;;14.90;;
35847;SDS011;22332;51.954;20.118;2023-04-09T09:29:45;21.10;;;16.40;;
35847;SDS011;22332;51.954;20.118;2023-04-09T09:32:52;22.80;;;18.20;;
35847;SDS011;22332;51.954;20.118;2023-04-09T09:36:07;29.30;;;21.10;;
35847;SDS011;22332;51.954;20.118;2023-04-09T09:39:13;27.90;;;18.70;;
35847;SDS011;22332;51.954;20.118;2023-04-09T09:42:19;25.60;;;20.20;;
35847;SDS011;22332;51.954;20.118;2023-04-09T09:45:25;22.80;;;16.80;;
35847;SDS011;22332;51.954;20.118;2023-04-09T09:48:32;25.20;;;19.50;;
35847;SDS011;22332;51.954;20.118;2023-04-09T09:51:38;20.20;;;16.10;;
35847;SDS011;22332;51.954;20.118;2023-04-09T09:54:46;19.00;;;15.60;;
35847;SDS011;22332;51.954;20.118;2023-04-09T09:57:54;21.30;;;17.10;;
35847;SDS011;22332;51.954;20.118;2023-04-09T10:01:01;20.60;;;15.10;;
35847;SDS011;22332;51.954;20.118;2023-04-09T10:04:11;19.30;;;15.10;;
35847;SDS011;22332;51.954;20.118;2023-04-09T10:07:18;18.40;;;14.50;;
35847;SDS011;22332;51.954;20.118;2023-04-09T10:10:25;18.00;;;14.50;;
35847;SDS011;22332;51.954;20.118;2023-04-09T10:13:33;19.40;;;15.10;;
35847;SDS011;22332;51.954;20.118;2023-04-09T10:16:41;15.40;;;12.80;;
35847;SDS011;22332;51.954;20.118;2023-04-09T10:19:50;16.00;;;13.00;;
35847;SDS011;22332;51.954;20.118;2023-04-09T10:23:05;14.70;;;11.70;;
35847;SDS011;22332;51.954;20.118;2023-04-09T10:26:18;15.50;;;11.70;;
35847;SDS011;22332;51.954;20.118;2023-04-09T10:29:29;13.80;;;11.80;;
35847;SDS011;22332;51.954;20.118;2023-04-09T10:32:34;14.10;;;11.40;;
35847;SDS011;22332;51.954;20.118;2023-04-09T10:35:41;14.10;;;11.30;;
35847;SDS011;22332;51.954;20.118;2023-04-09T10:38:49;13.10;;;11.10;;
35847;SDS011;22332;51.954;20.118;2023-04-09T10:41:55;12.60;;;10.20;;
35847;SDS011;22332;51.954;20.118;2023-04-09T10:45:05;12.80;;;10.30;;
35847;SDS011;22332;51.954;20.118;2023-04-09T10:48:13;12.30;;;10.40;;
35847;SDS011;22332;51.954;20.118;2023-04-09T10:51:23;12.60;;;9.90;;
35847;SDS011;22332;51.954;20.118;2023-04-09T10:54:42;12.80;;;9.90;;
35847;SDS011;22332;51.954;20.118;2023-04-09T10:57:49;10.90;;;9.00;;
35847;SDS011;22332;51.954;20.118;2023-04-09T11:00:54;13.30;;;10.50;;
35847;SDS011;22332;51.954;20.118;2023-04-09T11:04:08;12.60;;;9.70;;
35847;SDS011;22332;51.954;20.118;2023-04-09T11:07:19;13.90;;;10.40;;
35847;SDS011;22332;51.954;20.118;2023-04-09T11:10:26;12.30;;;9.90;;
35847;SDS011;22332;51.954;20.118;2023-04-09T11:13:32;11.70;;;9.50;;
35847;SDS011;22332;51.954;20.118;2023-04-09T11:16:38;11.80;;;9.90;;
35847;SDS011;22332;51.954;20.118;2023-04-09T11:19:44;11.30;;;10.00;;
35847;SDS011;22332;51.954;20.118;2023-04-09T11:22:51;11.20;;;9.60;;
35847;SDS011;22332;51.954;20.118;2023-04-09T11:25:57;11.20;;;9.50;;
35847;SDS011;22332;51.954;20.118;2023-04-09T11:29:05;9.70;;;8.60;;
35847;SDS011;22332;51.954;20.118;2023-04-09T11:32:11;11.30;;;8.50;;
35847;SDS011;22332;51.954;20.118;2023-04-09T11:35:17;14.80;;;11.40;;
35847;SDS011;22332;51.954;20.118;2023-04-09T11:38:23;12.70;;;10.40;;
35847;SDS011;22332;51.954;20.118;2023-04-09T11:41:35;14.10;;;11.40;;
35847;SDS011;22332;51.954;20.118;2023-04-09T11:44:41;15.30;;;12.40;;
35847;SDS011;22332;51.954;20.118;2023-04-09T11:47:48;13.90;;;11.70;;
35847;SDS011;22332;51.954;20.118;2023-04-09T11:50:55;15.00;;;12.90;;
35847;SDS011;22332;51.954;20.118;2023-04-09T11:54:01;14.20;;;12.10;;
35847;SDS011;22332;51.954;20.118;2023-04-09T11:57:07;15.40;;;12.60;;
35847;SDS011;22332;51.954;20.118;2023-04-09T12:00:14;15.40;;;12.00;;
35847;SDS011;22332;51.954;20.118;2023-04-09T12:03:24;14.90;;;12.40;;
35847;SDS011;22332;51.954;20.118;2023-04-09T12:06:33;13.60;;;11.90;;
35847;SDS011;22332;51.954;20.118;2023-04-09T12:09:48;14.90;;;11.30;;
35847;SDS011;22332;51.954;20.118;2023-04-09T12:12:53;13.90;;;11.70;;
35847;SDS011;22332;51.954;20.118;2023-04-09T12:16:03;13.50;;;11.10;;
35847;SDS011;22332;51.954;20.118;2023-04-09T12:19:10;12.70;;;11.10;;
35847;SDS011;22332;51.954;20.118;2023-04-09T12:22:16;12.20;;;10.30;;
35847;SDS011;22332;51.954;20.118;2023-04-09T12:25:21;12.00;;;10.10;;
35847;SDS011;22332;51.954;20.118;2023-04-09T12:28:27;10.40;;;9.20;;
35847;SDS011;22332;51.954;20.118;2023-04-09T12:31:33;12.20;;;9.90;;
35847;SDS011;22332;51.954;20.118;2023-04-09T12:34:38;12.00;;;9.90;;
35847;SDS011;22332;51.954;20.118;2023-04-09T12:37:44;12.50;;;10.30;;
35847;SDS011;22332;51.954;20.118;2023-04-09T12:40:49;12.90;;;10.40;;
35847;SDS011;22332;51.954;20.118;2023-04-09T12:43:55;13.00;;;10.20;;
35847;SDS011;22332;51.954;20.118;2023-04-09T12:47:01;11.50;;;10.00;;
35847;SDS011;22332;51.954;20.118;2023-04-09T12:50:07;11.20;;;9.10;;
35847;SDS011;22332;51.954;20.118;2023-04-09T12:53:14;11.50;;;8.90;;
35847;SDS011;22332;51.954;20.118;2023-04-09T12:56:20;11.50;;;9.20;;
35847;SDS011;22332;51.954;20.118;2023-04-09T12:59:26;11.00;;;9.30;;
35847;SDS011;22332;51.954;20.118;2023-04-09T13:02:32;10.40;;;9.00;;
35847;SDS011;22332;51.954;20.118;2023-04-09T13:05:38;12.30;;;10.00;;
35847;SDS011;22332;51.954;20.118;2023-04-09T13:08:43;11.10;;;9.30;;
35847;SDS011;22332;51.954;20.118;2023-04-09T13:11:49;11.00;;;9.30;;
35847;SDS011;22332;51.954;20.118;2023-04-09T13:14:54;11.30;;;9.50;;
35847;SDS011;22332;51.954;20.118;2023-04-09T13:18:00;12.40;;;9.80;;
35847;SDS011;22332;51.954;20.118;2023-04-09T13:21:06;10.70;;;8.60;;
35847;SDS011;22332;51.954;20.118;2023-04-09T13:24:12;11.70;;;9.90;;
35847;SDS011;22332;51.954;20.118;2023-04-09T13:27:17;12.70;;;8.90;;
35847;SDS011;22332;51.954;20.118;2023-04-09T13:30:23;10.30;;;8.40;;
35847;SDS011;22332;51.954;20.118;2023-04-09T13:33:29;10.80;;;8.80;;
35847;SDS011;22332;51.954;20.118;2023-04-09T13:36:34;10.30;;;8.60;;
35847;SDS011;22332;51.954;20.118;2023-04-09T13:39:40;9.60;;;8.40;;
35847;SDS011;22332;51.954;20.118;2023-04-09T13:42:45;10.20;;;7.70;;
35847;SDS011;22332;51.954;20.118;2023-04-09T13:45:50;10.20;;;8.20;;
35847;SDS011;22332;51.954;20.118;2023-04-09T13:48:56;8.50;;;7.40;;
35847;SDS011;22332;51.954;20.118;2023-04-09T13:52:02;10.10;;;8.10;;
35847;SDS011;22332;51.954;20.118;2023-04-09T13:55:08;10.00;;;8.10;;
35847;SDS011;22332;51.954;20.118;2023-04-09T13:58:14;10.90;;;8.10;;
35847;SDS011;22332;51.954;20.118;2023-04-09T14:01:19;10.50;;;8.20;;
35847;SDS011;22332;51.954;20.118;2023-04-09T14:04:25;9.50;;;7.60;;
35847;SDS011;22332;51.954;20.118;2023-04-09T14:07:31;10.70;;;8.70;;
35847;SDS011;22332;51.954;20.118;2023-04-09T14:10:37;10.40;;;8.60;;
35847;SDS011;22332;51.954;20.118;2023-04-09T14:13:43;9.90;;;8.40;;
35847;SDS011;22332;51.954;20.118;2023-04-09T14:16:48;9.20;;;7.80;;
35847;SDS011;22332;51.954;20.118;2023-04-09T14:19:54;11.70;;;8.40;;
35847;SDS011;22332;51.954;20.118;2023-04-09T14:23:00;11.10;;;8.80;;
35847;SDS011;22332;51.954;20.118;2023-04-09T14:26:06;11.20;;;8.90;;
35847;SDS011;22332;51.954;20.118;2023-04-09T14:29:11;10.30;;;8.60;;
35847;SDS011;22332;51.954;20.118;2023-04-09T14:32:17;10.10;;;8.50;;
35847;SDS011;22332;51.954;20.118;2023-04-09T14:35:23;9.50;;;7.90;;
35847;SDS011;22332;51.954;20.118;2023-04-09T14:38:29;10.30;;;8.10;;
35847;SDS011;22332;51.954;20.118;2023-04-09T14:41:35;11.90;;;8.40;;
35847;SDS011;22332;51.954;20.118;2023-04-09T14:44:40;11.00;;;8.50;;
35847;SDS011;22332;51.954;20.118;2023-04-09T14:47:46;9.60;;;8.00;;
35847;SDS011;22332;51.954;20.118;2023-04-09T14:50:51;9.60;;;8.10;;
35847;SDS011;22332;51.954;20.118;2023-04-09T14:53:56;10.00;;;7.60;;
35847;SDS011;22332;51.954;20.118;2023-04-09T14:57:03;9.90;;;8.20;;
35847;SDS011;22332;51.954;20.118;2023-04-09T15:00:10;9.80;;;8.00;;
35847;SDS011;22332;51.954;20.118;2023-04-09T15:03:16;9.70;;;7.80;;
35847;SDS011;22332;51.954;20.118;2023-04-09T15:06:23;8.50;;;7.00;;
35847;SDS011;22332;51.954;20.118;2023-04-09T15:09:29;7.80;;;6.90;;
35847;SDS011;22332;51.954;20.118;2023-04-09T15:12:35;7.80;;;6.80;;
35847;SDS011;22332;51.954;20.118;2023-04-09T15:15:40;11.30;;;7.60;;
35847;SDS011;22332;51.954;20.118;2023-04-09T15:18:46;9.20;;;7.10;;
35847;SDS011;22332;51.954;20.118;2023-04-09T15:21:53;9.80;;;8.00;;
35847;SDS011;22332;51.954;20.118;2023-04-09T15:24:58;9.40;;;8.20;;
35847;SDS011;22332;51.954;20.118;2023-04-09T15:28:04;14.70;;;13.00;;
35847;SDS011;22332;51.954;20.118;2023-04-09T15:31:10;10.80;;;9.30;;
35847;SDS011;22332;51.954;20.118;2023-04-09T15:34:16;10.60;;;8.60;;
35847;SDS011;22332;51.954;20.118;2023-04-09T15:37:21;8.90;;;7.90;;
35847;SDS011;22332;51.954;20.118;2023-04-09T15:40:27;9.70;;;7.60;;
35847;SDS011;22332;51.954;20.118;2023-04-09T15:43:32;8.20;;;7.30;;
35847;SDS011;22332;51.954;20.118;2023-04-09T15:46:38;9.40;;;7.70;;
35847;SDS011;22332;51.954;20.118;2023-04-09T15:49:43;9.30;;;7.90;;
35847;SDS011;22332;51.954;20.118;2023-04-09T15:52:49;10.60;;;8.10;;
35847;SDS011;22332;51.954;20.118;2023-04-09T15:55:55;17.40;;;14.40;;
35847;SDS011;22332;51.954;20.118;2023-04-09T15:59:00;14.30;;;11.50;;
35847;SDS011;22332;51.954;20.118;2023-04-09T16:02:06;12.40;;;9.50;;
35847;SDS011;22332;51.954;20.118;2023-04-09T16:05:12;30.70;;;26.20;;
35847;SDS011;22332;51.954;20.118;2023-04-09T16:08:18;14.10;;;11.40;;
35847;SDS011;22332;51.954;20.118;2023-04-09T16:11:23;12.90;;;10.50;;
35847;SDS011;22332;51.954;20.118;2023-04-09T16:14:29;21.60;;;16.80;;
35847;SDS011;22332;51.954;20.118;2023-04-09T16:17:34;14.00;;;9.60;;
35847;SDS011;22332;51.954;20.118;2023-04-09T16:20:40;12.00;;;9.10;;
35847;SDS011;22332;51.954;20.118;2023-04-09T16:23:45;10.70;;;8.30;;
35847;SDS011;22332;51.954;20.118;2023-04-09T16:26:50;12.00;;;8.70;;
35847;SDS011;22332;51.954;20.118;2023-04-09T16:29:56;50.50;;;29.60;;
35847;SDS011;22332;51.954;20.118;2023-04-09T16:33:01;33.10;;;18.90;;
35847;SDS011;22332;51.954;20.118;2023-04-09T16:36:08;16.10;;;10.80;;
35847;SDS011;22332;51.954;20.118;2023-04-09T16:39:13;13.40;;;10.60;;
35847;SDS011;22332;51.954;20.118;2023-04-09T16:42:18;13.60;;;10.10;;
35847;SDS011;22332;51.954;20.118;2023-04-09T16:45:25;13.00;;;10.40;;
35847;SDS011;22332;51.954;20.118;2023-04-09T16:48:31;12.10;;;8.70;;
35847;SDS011;22332;51.954;20.118;2023-04-09T16:51:38;11.00;;;8.20;;
35847;SDS011;22332;51.954;20.118;2023-04-09T16:54:44;11.70;;;9.00;;
35847;SDS011;22332;51.954;20.118;2023-04-09T16:57:49;10.40;;;8.20;;
35847;SDS011;22332;51.954;20.118;2023-04-09T17:00:57;19.10;;;13.40;;
35847;SDS011;22332;51.954;20.118;2023-04-09T17:04:03;30.50;;;21.30;;
35847;SDS011;22332;51.954;20.118;2023-04-09T17:07:08;30.00;;;21.40;;
35847;SDS011;22332;51.954;20.118;2023-04-09T17:10:14;26.70;;;19.20;;
35847;SDS011;22332;51.954;20.118;2023-04-09T17:13:19;21.90;;;15.70;;
35847;SDS011;22332;51.954;20.118;2023-04-09T17:16:25;19.70;;;14.80;;
35847;SDS011;22332;51.954;20.118;2023-04-09T17:19:30;16.60;;;12.30;;
35847;SDS011;22332;51.954;20.118;2023-04-09T17:22:35;18.10;;;9.90;;
35847;SDS011;22332;51.954;20.118;2023-04-09T17:25:41;16.00;;;12.50;;
35847;SDS011;22332;51.954;20.118;2023-04-09T17:28:48;15.90;;;12.10;;
35847;SDS011;22332;51.954;20.118;2023-04-09T17:31:54;13.30;;;10.10;;
35847;SDS011;22332;51.954;20.118;2023-04-09T17:34:59;14.90;;;9.50;;
35847;SDS011;22332;51.954;20.118;2023-04-09T17:38:05;17.10;;;14.10;;
35847;SDS011;22332;51.954;20.118;2023-04-09T17:41:10;17.30;;;13.60;;
35847;SDS011;22332;51.954;20.118;2023-04-09T17:44:16;16.90;;;13.90;;
35847;SDS011;22332;51.954;20.118;2023-04-09T17:47:21;14.30;;;11.40;;
35847;SDS011;22332;51.954;20.118;2023-04-09T17:50:27;13.90;;;11.30;;
35847;SDS011;22332;51.954;20.118;2023-04-09T17:53:33;14.50;;;11.70;;
35847;SDS011;22332;51.954;20.118;2023-04-09T17:56:38;17.00;;;14.30;;
35847;SDS011;22332;51.954;20.118;2023-04-09T17:59:44;18.90;;;14.80;;
35847;SDS011;22332;51.954;20.118;2023-04-09T18:02:51;19.40;;;14.00;;
35847;SDS011;22332;51.954;20.118;2023-04-09T18:05:56;25.70;;;18.40;;
35847;SDS011;22332;51.954;20.118;2023-04-09T18:09:02;24.10;;;17.00;;
35847;SDS011;22332;51.954;20.118;2023-04-09T18:12:07;27.80;;;19.50;;